Time;durP1;ratioP1;P1;durP2;ratioP2;P2;SDS_P1;SDS_P2;PMS_P1;PMS_P2;Temp;Humidity;BMP_temperature;BMP_pressure;BME280_temperature;BME280_humidity;BME280_pressure;Samples;Min_cycle;Max_cycle;Signal;HPM_P1;HPM_P2
2022/01/11 00:00:03;;;;;;;98.43;33.40;;;;;;;;;;5037954;28;20440;-65
2022/01/11 00:02:31;;;;;;;103.70;34.00;;;;;;;;;;5037280;28;20180;-65
2022/01/11 00:04:57;;;;;;;102.00;34.60;;;;;;;;;;5037414;28;20433;-64
2022/01/11 00:07:23;;;;;;;108.60;35.27;;;;;;;;;;5037356;28;20402;-64
2022/01/11 00:09:51;;;;;;;103.87;35.27;;;;;;;;;;5037494;28;20438;-65
2022/01/11 00:12:17;;;;;;;110.07;35.17;;;;;;;;;;5035612;28;20430;-65
2022/01/11 00:14:43;;;;;;;103.33;34.90;;;;;;;;;;5035784;28;20443;-65
2022/01/11 00:17:09;;;;;;;101.47;34.90;;;;;;;;;;5035756;28;20425;-64
2022/01/11 00:19:35;;;;;;;110.30;34.60;;;;;;;;;;5037037;28;20187;-65
2022/01/11 00:22:05;;;;;;;110.60;35.20;;;;;;;;;;5035696;28;20178;-65
2022/01/11 00:24:36;;;;;;;108.53;33.63;;;;;;;;;;5035494;28;20437;-64
2022/01/11 00:27:03;;;;;;;113.67;36.13;;;;;;;;;;5037043;28;20576;-64
2022/01/11 00:29:30;;;;;;;127.27;37.23;;;;;;;;;;5035783;28;20532;-64
2022/01/11 00:32:01;;;;;;;158.90;42.20;;;;;;;;;;5036775;28;20778;-65
2022/01/11 00:34:38;;;;;;;222.23;45.10;;;;;;;;;;5036720;28;20460;-64
2022/01/11 00:37:04;;;;;;;283.20;47.20;;;;;;;;;;5035628;28;20409;-64
2022/01/11 00:39:30;;;;;;;294.37;48.37;;;;;;;;;;5036595;28;20418;-64
2022/01/11 00:41:56;;;;;;;431.07;47.27;;;;;;;;;;5036989;28;20464;-64
2022/01/11 00:44:23;;;;;;;358.00;48.67;;;;;;;;;;5036817;28;20715;-64
2022/01/11 00:46:49;;;;;;;405.17;44.87;;;;;;;;;;5036045;28;20476;-64
2022/01/11 00:49:16;;;;;;;253.53;44.13;;;;;;;;;;5036570;28;20409;-64
2022/01/11 00:51:42;;;;;;;310.57;46.97;;;;;;;;;;5036940;28;20518;-65
2022/01/11 00:54:08;;;;;;;298.13;47.03;;;;;;;;;;5036318;28;20461;-64
2022/01/11 00:56:34;;;;;;;382.90;45.70;;;;;;;;;;5037047;28;20419;-64
2022/01/11 00:59:00;;;;;;;295.53;45.17;;;;;;;;;;5035191;28;20822;-64
2022/01/11 01:01:27;;;;;;;299.07;43.33;;;;;;;;;;5036543;28;20420;-64
2022/01/11 01:03:54;;;;;;;317.40;46.93;;;;;;;;;;5035126;28;20249;-64
2022/01/11 01:06:20;;;;;;;226.43;46.07;;;;;;;;;;5033789;28;20465;-65
2022/01/11 01:08:46;;;;;;;463.27;54.30;;;;;;;;;;5034914;28;20414;-65
2022/01/11 01:11:12;;;;;;;272.53;47.13;;;;;;;;;;5036322;28;20481;-64
2022/01/11 01:13:38;;;;;;;444.90;47.37;;;;;;;;;;5035984;28;20273;-64
2022/01/11 01:16:04;;;;;;;518.07;49.70;;;;;;;;;;5035830;28;20438;-64
2022/01/11 01:18:33;;;;;;;405.30;50.63;;;;;;;;;;5035704;28;20963;-64
2022/01/11 01:20:59;;;;;;;328.80;49.30;;;;;;;;;;5036424;28;20953;-64
2022/01/11 01:23:25;;;;;;;424.63;49.23;;;;;;;;;;5035949;28;20417;-64
2022/01/11 01:25:52;;;;;;;284.80;45.53;;;;;;;;;;5035573;28;20465;-64
2022/01/11 01:28:18;;;;;;;337.93;43.83;;;;;;;;;;5034608;28;20417;-64
2022/01/11 01:30:44;;;;;;;427.67;46.97;;;;;;;;;;5036284;28;20421;-66
2022/01/11 01:33:10;;;;;;;470.43;49.80;;;;;;;;;;5034663;28;20410;-65
2022/01/11 01:35:39;;;;;;;457.10;46.60;;;;;;;;;;5034293;28;20433;-64
2022/01/11 01:38:07;;;;;;;296.90;44.53;;;;;;;;;;5035922;28;20179;-66
2022/01/11 01:40:38;;;;;;;258.60;41.90;;;;;;;;;;5035809;28;20814;-66
2022/01/11 01:43:05;;;;;;;236.73;38.80;;;;;;;;;;5035492;28;20851;-65
2022/01/11 01:45:31;;;;;;;214.47;39.00;;;;;;;;;;5035454;28;20469;-64
2022/01/11 01:47:58;;;;;;;285.73;40.33;;;;;;;;;;5034615;28;20789;-65
2022/01/11 01:50:25;;;;;;;291.47;39.33;;;;;;;;;;5034115;28;20422;-64
2022/01/11 01:52:52;;;;;;;358.20;41.67;;;;;;;;;;5034438;28;20418;-65
2022/01/11 01:55:18;;;;;;;213.00;40.97;;;;;;;;;;5035245;28;20453;-65
2022/01/11 01:57:44;;;;;;;245.23;42.23;;;;;;;;;;5035041;28;20414;-65
2022/01/11 02:00:12;;;;;;;389.97;44.70;;;;;;;;;;5034114;28;20414;-65
2022/01/11 02:02:41;;;;;;;259.27;40.47;;;;;;;;;;5033966;28;20193;-65
2022/01/11 02:05:07;;;;;;;326.50;45.20;;;;;;;;;;5035322;28;20472;-64
2022/01/11 02:07:34;;;;;;;408.40;46.97;;;;;;;;;;5035123;28;20805;-64
2022/01/11 02:10:01;;;;;;;356.13;47.67;;;;;;;;;;5034878;28;20414;-65
2022/01/11 02:12:27;;;;;;;328.00;46.43;;;;;;;;;;5033507;28;20972;-64
2022/01/11 02:14:53;;;;;;;356.40;46.93;;;;;;;;;;5034835;28;20437;-65
2022/01/11 02:17:19;;;;;;;289.70;46.40;;;;;;;;;;5033111;28;20414;-65
2022/01/11 02:19:45;;;;;;;217.43;43.17;;;;;;;;;;5033305;28;20278;-65
2022/01/11 02:22:11;;;;;;;275.37;41.93;;;;;;;;;;5033455;28;20453;-65
2022/01/11 02:24:38;;;;;;;208.90;38.47;;;;;;;;;;5034413;28;20192;-65
2022/01/11 02:27:04;;;;;;;250.87;38.77;;;;;;;;;;5036021;28;20454;-65
2022/01/11 02:29:30;;;;;;;245.10;40.63;;;;;;;;;;5049135;28;20413;-65
2022/01/11 02:31:56;;;;;;;267.10;40.47;;;;;;;;;;5048883;28;20413;-65
2022/01/11 02:34:22;;;;;;;258.73;41.37;;;;;;;;;;5047203;28;20434;-65
2022/01/11 02:36:48;;;;;;;201.27;40.00;;;;;;;;;;5041737;28;20421;-67
2022/01/11 02:39:14;;;;;;;216.90;40.80;;;;;;;;;;5035533;28;20418;-65
2022/01/11 02:41:51;;;;;;;195.23;38.53;;;;;;;;;;5033450;28;20491;-65
2022/01/11 02:44:17;;;;;;;196.57;36.83;;;;;;;;;;5034558;28;20254;-65
2022/01/11 02:46:43;;;;;;;257.80;37.53;;;;;;;;;;5034860;28;20823;-65
2022/01/11 02:49:09;;;;;;;223.57;34.43;;;;;;;;;;5034748;28;20684;-65
2022/01/11 02:51:34;;;;;;;192.00;33.53;;;;;;;;;;5033247;28;20500;-65
2022/01/11 02:54:01;;;;;;;185.30;31.20;;;;;;;;;;5034484;28;20517;-65
2022/01/11 02:56:27;;;;;;;162.30;31.43;;;;;;;;;;5032908;28;20686;-65
2022/01/11 02:58:53;;;;;;;227.20;34.90;;;;;;;;;;5034346;28;20418;-66
2022/01/11 03:01:19;;;;;;;237.43;32.47;;;;;;;;;;5032968;28;20428;-65
2022/01/11 03:03:45;;;;;;;200.50;35.77;;;;;;;;;;5034583;28;20183;-65
2022/01/11 03:06:11;;;;;;;154.87;33.00;;;;;;;;;;5034163;28;20968;-66
2022/01/11 03:08:41;;;;;;;177.43;34.93;;;;;;;;;;5032374;28;20418;-65
2022/01/11 03:11:07;;;;;;;230.27;35.73;;;;;;;;;;5032333;28;20414;-65
2022/01/11 03:13:35;;;;;;;157.37;36.47;;;;;;;;;;5034092;28;20410;-65
2022/01/11 03:16:01;;;;;;;156.70;34.90;;;;;;;;;;5032399;28;20864;-65
2022/01/11 03:18:27;;;;;;;137.63;33.13;;;;;;;;;;5033750;28;20834;-65
2022/01/11 03:20:53;;;;;;;149.17;36.37;;;;;;;;;;5032849;28;20509;-65
2022/01/11 03:23:19;;;;;;;144.87;34.43;;;;;;;;;;5034312;28;20222;-65
2022/01/11 03:25:46;;;;;;;142.63;34.83;;;;;;;;;;5032593;28;20969;-65
2022/01/11 03:28:12;;;;;;;174.70;36.90;;;;;;;;;;5032893;28;20421;-65
2022/01/11 03:30:39;;;;;;;233.40;39.53;;;;;;;;;;5036817;28;20432;-65
2022/01/11 03:33:08;;;;;;;221.20;43.20;;;;;;;;;;5038073;28;20417;-65
2022/01/11 03:35:35;;;;;;;259.03;45.53;;;;;;;;;;5038608;28;20440;-65
2022/01/11 03:38:01;;;;;;;333.80;54.43;;;;;;;;;;5037858;28;20405;-65
2022/01/11 03:40:27;;;;;;;328.13;51.73;;;;;;;;;;5037617;28;20413;-65
2022/01/11 03:42:54;;;;;;;262.47;44.93;;;;;;;;;;5036160;28;20593;-65
2022/01/11 03:45:24;;;;;;;247.97;43.77;;;;;;;;;;5037523;28;20551;-65
2022/01/11 03:47:51;;;;;;;334.00;52.93;;;;;;;;;;5037853;28;20432;-65
2022/01/11 03:50:18;;;;;;;243.37;49.97;;;;;;;;;;5037556;28;20432;-65
2022/01/11 03:52:44;;;;;;;239.10;47.83;;;;;;;;;;5037132;28;20409;-65
2022/01/11 03:55:20;;;;;;;213.00;48.67;;;;;;;;;;5036296;28;20497;-66
2022/01/11 03:57:47;;;;;;;247.17;52.80;;;;;;;;;;5037876;28;20401;-65
2022/01/11 04:00:19;;;;;;;344.00;59.93;;;;;;;;;;5037739;28;20428;-64
2022/01/11 04:02:45;;;;;;;271.90;61.83;;;;;;;;;;5038100;28;20500;-65
2022/01/11 04:05:13;;;;;;;249.47;57.17;;;;;;;;;;5038235;28;20556;-65
2022/01/11 04:07:40;;;;;;;238.90;55.57;;;;;;;;;;5038531;28;20867;-65
2022/01/11 04:10:08;;;;;;;252.50;63.73;;;;;;;;;;5038519;28;20882;-65
2022/01/11 04:12:34;;;;;;;270.27;71.10;;;;;;;;;;5037211;28;20914;-65
2022/01/11 04:15:00;;;;;;;220.70;54.93;;;;;;;;;;5038519;28;20462;-65
2022/01/11 04:17:26;;;;;;;206.10;44.73;;;;;;;;;;5037306;28;20468;-65
2022/01/11 04:19:52;;;;;;;225.50;44.57;;;;;;;;;;5036958;28;20516;-65
2022/01/11 04:22:19;;;;;;;187.33;43.30;;;;;;;;;;5037587;28;20179;-65
2022/01/11 04:24:45;;;;;;;228.93;46.83;;;;;;;;;;5036969;28;20483;-65
2022/01/11 04:27:11;;;;;;;193.30;43.17;;;;;;;;;;5035764;28;20465;-64
2022/01/11 04:29:37;;;;;;;223.73;46.30;;;;;;;;;;5037534;28;20956;-65
2022/01/11 04:32:03;;;;;;;232.40;51.13;;;;;;;;;;5036990;28;20175;-65
2022/01/11 04:34:30;;;;;;;213.03;48.43;;;;;;;;;;5036846;28;20199;-65
2022/01/11 04:36:56;;;;;;;219.73;48.33;;;;;;;;;;5036884;28;20410;-65
2022/01/11 04:39:22;;;;;;;224.30;49.83;;;;;;;;;;5036443;28;20417;-65
2022/01/11 04:41:49;;;;;;;232.90;48.90;;;;;;;;;;5034679;28;20423;-65
2022/01/11 04:44:15;;;;;;;287.07;51.47;;;;;;;;;;5036693;28;20433;-64
2022/01/11 04:46:41;;;;;;;265.83;54.00;;;;;;;;;;5036561;28;20820;-65
2022/01/11 04:49:07;;;;;;;268.13;48.63;;;;;;;;;;5036930;28;20445;-65
2022/01/11 04:51:34;;;;;;;272.10;51.73;;;;;;;;;;5036582;28;20402;-66
2022/01/11 04:54:01;;;;;;;261.07;51.90;;;;;;;;;;5035486;28;20220;-65
2022/01/11 04:56:27;;;;;;;234.07;50.53;;;;;;;;;;5036333;28;20418;-65
2022/01/11 04:58:53;;;;;;;240.10;46.40;;;;;;;;;;5036776;28;20497;-66
2022/01/11 05:01:19;;;;;;;252.63;50.43;;;;;;;;;;5035177;28;20464;-65
2022/01/11 05:03:45;;;;;;;337.27;52.80;;;;;;;;;;5036239;28;20317;-66
2022/01/11 05:06:11;;;;;;;283.00;50.50;;;;;;;;;;5036011;28;20932;-65
2022/01/11 05:08:37;;;;;;;223.33;49.37;;;;;;;;;;5036153;28;20180;-65
2022/01/11 05:11:03;;;;;;;255.63;49.53;;;;;;;;;;5036891;28;20882;-65
2022/01/11 05:13:31;;;;;;;233.77;47.27;;;;;;;;;;5035875;28;20175;-64
2022/01/11 05:15:57;;;;;;;231.83;46.40;;;;;;;;;;5034600;28;20434;-65
2022/01/11 05:18:23;;;;;;;234.43;45.80;;;;;;;;;;5034458;28;20441;-65
2022/01/11 05:20:49;;;;;;;235.53;49.27;;;;;;;;;;5036046;28;20190;-65
2022/01/11 05:23:15;;;;;;;199.20;47.57;;;;;;;;;;5036132;28;20187;-66
2022/01/11 05:25:41;;;;;;;206.43;46.00;;;;;;;;;;5036063;28;20242;-66
2022/01/11 05:28:07;;;;;;;269.30;48.43;;;;;;;;;;5034619;28;20187;-65
2022/01/11 05:30:33;;;;;;;221.97;46.90;;;;;;;;;;5036200;28;20785;-65
2022/01/11 05:32:59;;;;;;;209.80;44.20;;;;;;;;;;5035748;28;20413;-65
2022/01/11 05:35:26;;;;;;;206.07;44.33;;;;;;;;;;5034324;28;20434;-65
2022/01/11 05:37:52;;;;;;;176.83;42.77;;;;;;;;;;5035978;28;20182;-65
2022/01/11 05:40:18;;;;;;;183.23;43.07;;;;;;;;;;5035564;28;20413;-65
2022/01/11 05:42:45;;;;;;;170.70;44.07;;;;;;;;;;5035381;28;20416;-66
2022/01/11 05:45:12;;;;;;;192.87;46.33;;;;;;;;;;5035719;28;20567;-65
2022/01/11 05:47:38;;;;;;;191.63;45.33;;;;;;;;;;5035845;28;20406;-65
2022/01/11 05:50:05;;;;;;;188.80;44.37;;;;;;;;;;5034238;28;20445;-65
2022/01/11 05:52:31;;;;;;;225.40;53.10;;;;;;;;;;5033866;28;20422;-65
2022/01/11 05:54:57;;;;;;;221.37;52.37;;;;;;;;;;5035508;28;20461;-65
2022/01/11 05:57:23;;;;;;;220.17;51.60;;;;;;;;;;5035472;28;20406;-66
2022/01/11 05:59:50;;;;;;;241.33;60.73;;;;;;;;;;5035811;28;20402;-65
2022/01/11 06:02:16;;;;;;;240.73;57.77;;;;;;;;;;5034776;28;20472;-65
2022/01/11 06:04:41;;;;;;;198.60;50.90;;;;;;;;;;5035657;28;20782;-65
2022/01/11 06:07:07;;;;;;;188.53;47.20;;;;;;;;;;5035261;28;20203;-65
2022/01/11 06:09:33;;;;;;;160.33;43.80;;;;;;;;;;5034127;28;20187;-65
2022/01/11 06:11:59;;;;;;;135.93;39.40;;;;;;;;;;5036012;28;20179;-65
2022/01/11 06:14:25;;;;;;;155.93;39.10;;;;;;;;;;5036789;28;20567;-66
2022/01/11 06:16:52;;;;;;;167.93;42.37;;;;;;;;;;5034601;28;20509;-65
2022/01/11 06:19:18;;;;;;;140.87;39.47;;;;;;;;;;5034207;28;20190;-66
2022/01/11 06:21:44;;;;;;;149.10;41.63;;;;;;;;;;5035272;28;20517;-65
2022/01/11 06:24:10;;;;;;;161.57;36.40;;;;;;;;;;5033875;28;20183;-65
2022/01/11 06:26:36;;;;;;;168.77;35.43;;;;;;;;;;5034860;28;20876;-65
2022/01/11 06:29:02;;;;;;;197.83;35.67;;;;;;;;;;5034865;28;20179;-66
2022/01/11 06:31:29;;;;;;;162.73;36.87;;;;;;;;;;5034356;28;20181;-65
2022/01/11 06:33:55;;;;;;;188.10;38.80;;;;;;;;;;5034433;28;20463;-65
2022/01/11 06:36:21;;;;;;;203.93;38.43;;;;;;;;;;5034840;28;20418;-65
2022/01/11 06:38:48;;;;;;;163.90;38.33;;;;;;;;;;5034549;28;20448;-65
2022/01/11 06:41:14;;;;;;;180.20;39.30;;;;;;;;;;5034427;28;20640;-66
2022/01/11 06:43:40;;;;;;;171.20;37.53;;;;;;;;;;5034714;28;20774;-65
2022/01/11 06:46:06;;;;;;;141.20;38.63;;;;;;;;;;5034172;28;20469;-65
2022/01/11 06:48:33;;;;;;;149.90;36.80;;;;;;;;;;5033217;28;20502;-65
2022/01/11 06:50:59;;;;;;;171.17;38.83;;;;;;;;;;5034764;28;20607;-66
2022/01/11 06:53:25;;;;;;;160.37;40.33;;;;;;;;;;5034956;28;20906;-65
2022/01/11 06:55:53;;;;;;;154.27;40.80;;;;;;;;;;5034141;28;20744;-65
2022/01/11 06:58:19;;;;;;;174.30;39.93;;;;;;;;;;5034502;28;20596;-65
2022/01/11 07:00:45;;;;;;;164.27;40.37;;;;;;;;;;5034301;28;20413;-65
2022/01/11 07:03:12;;;;;;;148.00;40.13;;;;;;;;;;5033375;28;20417;-65
2022/01/11 07:05:38;;;;;;;148.40;39.93;;;;;;;;;;5034173;28;20519;-65
2022/01/11 07:08:04;;;;;;;133.80;39.43;;;;;;;;;;5034388;28;20471;-65
2022/01/11 07:10:30;;;;;;;146.27;39.33;;;;;;;;;;5034940;28;20409;-65
2022/01/11 07:12:57;;;;;;;139.80;38.60;;;;;;;;;;5034440;28;20429;-65
2022/01/11 07:15:23;;;;;;;135.77;38.73;;;;;;;;;;5034142;28;20568;-65
2022/01/11 07:17:49;;;;;;;144.93;39.07;;;;;;;;;;5034074;28;20930;-65
2022/01/11 07:20:15;;;;;;;146.77;40.93;;;;;;;;;;5033762;28;20418;-66
2022/01/11 07:22:41;;;;;;;155.70;42.50;;;;;;;;;;5032548;28;20183;-66
2022/01/11 07:25:08;;;;;;;171.33;44.40;;;;;;;;;;5034093;28;20446;-65
2022/01/11 07:27:34;;;;;;;142.00;40.07;;;;;;;;;;5032852;28;20981;-65
2022/01/11 07:30:00;;;;;;;138.13;39.37;;;;;;;;;;5032243;28;20948;-65
2022/01/11 07:32:26;;;;;;;130.07;37.63;;;;;;;;;;5032624;28;20929;-65
2022/01/11 07:34:52;;;;;;;148.77;39.03;;;;;;;;;;5059868;23;20504;-66
2022/01/11 07:37:18;;;;;;;147.63;36.87;;;;;;;;;;5036693;28;20425;-66
2022/01/11 07:39:44;;;;;;;140.17;35.27;;;;;;;;;;5051206;28;20792;-67
2022/01/11 07:42:10;;;;;;;144.60;36.37;;;;;;;;;;5035846;28;20205;-66
2022/01/11 07:44:36;;;;;;;205.90;41.60;;;;;;;;;;5035649;28;20206;-65
2022/01/11 07:47:04;;;;;;;165.47;41.33;;;;;;;;;;5034407;28;20290;-65
2022/01/11 07:49:30;;;;;;;157.67;41.13;;;;;;;;;;5034178;28;20560;-66
2022/01/11 07:51:56;;;;;;;139.53;40.77;;;;;;;;;;5035756;28;20432;-65
2022/01/11 07:54:22;;;;;;;171.47;41.13;;;;;;;;;;5034393;28;20450;-65
2022/01/11 07:56:48;;;;;;;146.13;39.83;;;;;;;;;;5035042;28;20422;-65
2022/01/11 07:59:14;;;;;;;142.17;40.83;;;;;;;;;;5034314;28;20491;-67
2022/01/11 08:01:40;;;;;;;152.67;39.83;;;;;;;;;;5034442;28;20187;-67
2022/01/11 08:04:07;;;;;;;165.80;41.43;;;;;;;;;;5035517;28;20521;-67
2022/01/11 08:06:33;;;;;;;157.47;42.03;;;;;;;;;;5035832;28;20690;-65
2022/01/11 08:09:00;;;;;;;171.40;44.20;;;;;;;;;;5035582;28;20463;-65
2022/01/11 08:11:26;;;;;;;165.37;44.43;;;;;;;;;;5036054;28;20416;-66
2022/01/11 08:13:52;;;;;;;162.57;44.90;;;;;;;;;;5034416;28;20426;-65
2022/01/11 08:16:17;;;;;;;150.63;43.23;;;;;;;;;;5039278;28;20501;-65
2022/01/11 08:18:43;;;;;;;158.27;43.87;;;;;;;;;;5038303;28;20183;-65
2022/01/11 08:21:10;;;;;;;138.00;44.27;;;;;;;;;;5039167;28;20179;-65
2022/01/11 08:23:36;;;;;;;183.93;43.37;;;;;;;;;;5039408;28;20179;-64
2022/01/11 08:26:02;;;;;;;149.43;45.03;;;;;;;;;;5038779;28;20464;-67
2022/01/11 08:28:28;;;;;;;148.93;43.83;;;;;;;;;;5039650;28;20780;-65
2022/01/11 08:30:57;;;;;;;134.63;41.70;;;;;;;;;;5037971;28;20418;-66
2022/01/11 08:33:22;;;;;;;139.40;42.73;;;;;;;;;;5038737;28;20313;-65
2022/01/11 08:35:48;;;;;;;142.73;43.40;;;;;;;;;;5038257;28;20518;-65
2022/01/11 08:38:15;;;;;;;152.83;42.70;;;;;;;;;;5038446;28;20179;-65
2022/01/11 08:40:41;;;;;;;203.90;46.30;;;;;;;;;;5038709;28;20671;-65
2022/01/11 08:43:07;;;;;;;192.90;50.17;;;;;;;;;;5038972;28;20416;-65
2022/01/11 08:45:33;;;;;;;193.67;51.50;;;;;;;;;;5038568;28;20739;-66
2022/01/11 08:48:00;;;;;;;169.37;47.27;;;;;;;;;;5037794;28;20266;-65
2022/01/11 08:50:26;;;;;;;208.17;54.07;;;;;;;;;;5038742;28;20414;-65
2022/01/11 08:52:52;;;;;;;209.57;52.17;;;;;;;;;;5037879;28;20464;-65
2022/01/11 08:55:18;;;;;;;176.10;54.53;;;;;;;;;;5036676;28;20199;-65
2022/01/11 08:57:44;;;;;;;155.90;47.27;;;;;;;;;;5037994;28;20244;-66
2022/01/11 09:00:18;;;;;;;179.73;48.27;;;;;;;;;;5036557;28;20867;-65
2022/01/11 09:02:45;;;;;;;329.70;53.13;;;;;;;;;;5037847;28;20390;-66
2022/01/11 09:05:11;;;;;;;214.03;51.60;;;;;;;;;;5037059;28;20587;-65
2022/01/11 09:07:37;;;;;;;152.97;48.07;;;;;;;;;;5037900;28;20875;-66
2022/01/11 09:10:04;;;;;;;193.03;49.10;;;;;;;;;;5037211;28;20175;-65
2022/01/11 09:12:30;;;;;;;205.53;51.63;;;;;;;;;;5037790;28;20410;-66
2022/01/11 09:14:56;;;;;;;187.60;52.17;;;;;;;;;;5037057;28;20441;-66
2022/01/11 09:17:22;;;;;;;196.27;50.77;;;;;;;;;;5037182;28;20274;-66
2022/01/11 09:19:47;;;;;;;172.50;50.77;;;;;;;;;;5037262;28;20183;-66
2022/01/11 09:22:13;;;;;;;188.03;51.53;;;;;;;;;;5035755;28;20642;-66
2022/01/11 09:24:40;;;;;;;198.43;51.03;;;;;;;;;;5036607;28;20199;-65
2022/01/11 09:27:06;;;;;;;173.70;52.80;;;;;;;;;;5036315;28;20465;-66
2022/01/11 09:29:33;;;;;;;158.40;51.80;;;;;;;;;;5037095;28;20410;-66
2022/01/11 09:32:00;;;;;;;143.23;50.73;;;;;;;;;;5035465;28;20504;-66
2022/01/11 09:34:26;;;;;;;137.00;47.90;;;;;;;;;;5036552;28;21028;-67
2022/01/11 09:36:52;;;;;;;134.87;47.67;;;;;;;;;;5035941;28;20796;-69
2022/01/11 09:39:19;;;;;;;121.10;45.23;;;;;;;;;;5037122;28;20408;-66
2022/01/11 09:41:45;;;;;;;158.20;49.20;;;;;;;;;;5036338;28;20414;-66
2022/01/11 09:44:11;;;;;;;132.17;47.67;;;;;;;;;;5037031;28;20793;-65
2022/01/11 09:46:38;;;;;;;130.13;47.87;;;;;;;;;;5037315;28;20303;-65
2022/01/11 09:49:04;;;;;;;132.07;47.00;;;;;;;;;;5036463;28;20414;-65
2022/01/11 09:51:35;;;;;;;110.90;46.63;;;;;;;;;;5035274;28;20421;-65
2022/01/11 09:54:02;;;;;;;116.90;47.87;;;;;;;;;;5036846;28;20428;-66
2022/01/11 09:56:28;;;;;;;117.07;45.63;;;;;;;;;;5035586;28;20929;-65
2022/01/11 09:58:55;;;;;;;115.33;46.37;;;;;;;;;;5036613;28;20445;-65
2022/01/11 10:01:21;;;;;;;115.50;45.77;;;;;;;;;;5035003;28;20233;-66
2022/01/11 10:03:57;;;;;;;108.10;43.70;;;;;;;;;;5035125;28;21011;-66
2022/01/11 10:06:25;;;;;;;115.10;45.37;;;;;;;;;;5036068;28;20202;-63
2022/01/11 10:08:51;;;;;;;120.57;46.50;;;;;;;;;;5036571;28;20842;-66
2022/01/11 10:11:33;;;;;;;107.53;43.17;;;;;;;;;;5036286;28;20410;-65
2022/01/11 10:13:59;;;;;;;111.90;44.40;;;;;;;;;;5035839;28;20455;-66
2022/01/11 10:16:26;;;;;;;106.03;44.93;;;;;;;;;;5035589;28;20463;-66
2022/01/11 10:18:53;;;;;;;108.87;45.43;;;;;;;;;;5035646;28;20184;-66
2022/01/11 10:21:35;;;;;;;131.40;50.20;;;;;;;;;;5034246;28;20429;-66
2022/01/11 10:24:01;;;;;;;129.60;48.83;;;;;;;;;;5033865;28;20965;-66
2022/01/11 10:26:43;;;;;;;135.77;47.00;;;;;;;;;;5034247;28;20507;-66
2022/01/11 10:29:28;;;;;;;126.77;50.13;;;;;;;;;;5033781;28;20789;-67
2022/01/11 10:31:55;;;;;;;150.03;53.97;;;;;;;;;;5035541;28;20923;-65
2022/01/11 10:34:28;;;;;;;152.87;55.83;;;;;;;;;;5035220;28;20482;-66
2022/01/11 10:36:54;;;;;;;153.90;54.87;;;;;;;;;;5035255;28;20413;-63
2022/01/11 10:39:25;;;;;;;148.17;55.10;;;;;;;;;;5033721;28;20428;-66
2022/01/11 10:41:51;;;;;;;153.03;56.53;;;;;;;;;;5035349;28;20488;-66
2022/01/11 10:44:36;;;;;;;142.77;54.93;;;;;;;;;;5034850;28;20484;-65
2022/01/11 10:47:03;;;;;;;139.00;54.07;;;;;;;;;;5033325;28;20203;-68
2022/01/11 10:49:31;;;;;;;137.63;51.23;;;;;;;;;;5034692;28;20926;-65
2022/01/11 10:52:17;;;;;;;125.53;50.10;;;;;;;;;;5034980;28;20409;-65
2022/01/11 10:54:43;;;;;;;141.50;54.37;;;;;;;;;;5034861;28;20515;-66
2022/01/11 10:57:16;;;;;;;135.07;55.10;;;;;;;;;;5034718;28;20421;-65
2022/01/11 10:59:42;;;;;;;151.53;60.53;;;;;;;;;;5035228;28;20947;-65
2022/01/11 11:02:27;;;;;;;149.93;57.33;;;;;;;;;;5033511;28;20471;-65
2022/01/11 11:04:52;;;;;;;147.57;57.17;;;;;;;;;;5034881;28;20507;-66
2022/01/11 11:07:22;;;;;;;138.50;53.87;;;;;;;;;;5035055;28;20957;-66
2022/01/11 11:09:50;;;;;;;132.37;53.80;;;;;;;;;;5035160;28;20225;-65
2022/01/11 11:12:16;;;;;;;136.60;52.07;;;;;;;;;;5035334;28;20406;-66
2022/01/11 11:14:49;;;;;;;133.60;52.63;;;;;;;;;;5035071;28;20433;-65
2022/01/11 11:17:31;;;;;;;135.90;53.53;;;;;;;;;;5034617;28;20179;-65
2022/01/11 11:19:59;;;;;;;136.43;57.50;;;;;;;;;;5035170;28;20425;-65
2022/01/11 11:22:26;;;;;;;122.17;53.00;;;;;;;;;;5035325;28;20410;-66
2022/01/11 11:24:53;;;;;;;129.70;52.70;;;;;;;;;;5034942;28;20926;-65
2022/01/11 11:27:20;;;;;;;124.53;53.80;;;;;;;;;;5034628;28;20484;-65
2022/01/11 11:29:48;;;;;;;123.50;49.43;;;;;;;;;;5033646;28;20428;-65
2022/01/11 11:32:16;;;;;;;131.77;58.87;;;;;;;;;;5034924;28;20406;-64
2022/01/11 11:34:42;;;;;;;160.13;64.30;;;;;;;;;;5034880;28;20825;-65
2022/01/11 11:37:10;;;;;;;142.27;55.47;;;;;;;;;;5034925;28;20831;-64
2022/01/11 11:39:38;;;;;;;130.50;54.87;;;;;;;;;;5034579;28;20513;-67
2022/01/11 11:42:04;;;;;;;126.13;52.00;;;;;;;;;;5034857;28;20417;-65
2022/01/11 11:44:36;;;;;;;155.63;65.20;;;;;;;;;;5034661;28;20430;-65
2022/01/11 11:47:05;;;;;;;124.47;53.07;;;;;;;;;;5034656;28;20449;-65
2022/01/11 11:49:45;;;;;;;148.67;55.50;;;;;;;;;;5034106;28;20505;-65
2022/01/11 11:52:22;;;;;;;135.43;55.20;;;;;;;;;;5038434;28;20452;-66
2022/01/11 11:54:50;;;;;;;127.30;53.23;;;;;;;;;;5038406;28;20425;-65
2022/01/11 11:57:16;;;;;;;122.33;52.13;;;;;;;;;;5038856;28;20417;-64
2022/01/11 11:59:50;;;;;;;119.73;49.53;;;;;;;;;;5038385;28;20410;-65
2022/01/11 12:02:30;;;;;;;120.70;50.63;;;;;;;;;;5038079;28;20868;-65
2022/01/11 12:04:56;;;;;;;110.80;48.27;;;;;;;;;;5036551;28;20498;-65
2022/01/11 12:07:39;;;;;;;126.87;54.03;;;;;;;;;;5036604;28;20522;-65
2022/01/11 12:10:07;;;;;;;140.13;60.27;;;;;;;;;;5038054;28;20394;-65
2022/01/11 12:12:42;;;;;;;133.43;60.20;;;;;;;;;;5037826;28;20804;-66
2022/01/11 12:15:23;;;;;;;114.90;49.50;;;;;;;;;;5036413;28;20467;-65
2022/01/11 12:18:09;;;;;;;138.60;59.30;;;;;;;;;;5037484;28;20544;-65
2022/01/11 12:20:41;;;;;;;124.37;56.40;;;;;;;;;;5036360;28;20424;-65
2022/01/11 12:23:08;;;;;;;101.27;48.97;;;;;;;;;;5037662;28;20488;-65
2022/01/11 12:25:38;;;;;;;110.00;45.27;;;;;;;;;;5036117;28;20496;-65
2022/01/11 12:28:05;;;;;;;97.73;44.77;;;;;;;;;;5036648;28;20386;-64
2022/01/11 12:30:32;;;;;;;91.47;45.50;;;;;;;;;;5037149;28;20174;-66
2022/01/11 12:33:09;;;;;;;89.10;43.57;;;;;;;;;;5037345;28;20402;-66
2022/01/11 12:35:49;;;;;;;95.77;46.03;;;;;;;;;;5036128;28;20477;-64
2022/01/11 12:38:15;;;;;;;94.40;45.33;;;;;;;;;;5036223;28;20194;-65
2022/01/11 12:40:43;;;;;;;98.57;44.97;;;;;;;;;;5035837;28;20505;-63
2022/01/11 12:43:16;;;;;;;92.83;45.40;;;;;;;;;;5036175;28;20849;-63
2022/01/11 12:45:55;;;;;;;98.00;48.13;;;;;;;;;;5035615;28;20528;-63
2022/01/11 12:48:39;;;;;;;89.03;42.87;;;;;;;;;;5037367;28;20179;-66
2022/01/11 12:51:05;;;;;;;84.13;43.33;;;;;;;;;;5037084;28;20426;-65
2022/01/11 12:53:31;;;;;;;83.93;42.83;;;;;;;;;;5037140;28;20662;-64
2022/01/11 12:55:58;;;;;;;77.00;41.07;;;;;;;;;;5036809;28;20249;-65
2022/01/11 12:58:24;;;;;;;81.07;40.90;;;;;;;;;;5036958;28;20247;-65
2022/01/11 13:00:50;;;;;;;82.60;41.20;;;;;;;;;;5036118;28;20648;-66
2022/01/11 13:03:16;;;;;;;75.40;36.70;;;;;;;;;;5036406;28;20186;-65
2022/01/11 13:05:44;;;;;;;75.73;40.13;;;;;;;;;;5034911;28;20210;-64
2022/01/11 13:08:10;;;;;;;70.33;37.20;;;;;;;;;;5036929;28;20175;-66
2022/01/11 13:10:39;;;;;;;68.50;37.43;;;;;;;;;;5036570;28;20261;-65
2022/01/11 13:13:11;;;;;;;67.73;36.10;;;;;;;;;;5034989;28;20183;-66
2022/01/11 13:15:39;;;;;;;64.37;34.00;;;;;;;;;;5036870;28;20192;-65
2022/01/11 13:18:15;;;;;;;62.33;33.33;;;;;;;;;;5035125;28;20537;-65
2022/01/11 13:20:46;;;;;;;60.03;33.97;;;;;;;;;;5034992;28;20553;-65
2022/01/11 13:23:20;;;;;;;64.80;35.77;;;;;;;;;;5036781;28;20213;-65
2022/01/11 13:25:51;;;;;;;64.87;32.43;;;;;;;;;;5034919;28;20461;-65
2022/01/11 13:28:22;;;;;;;58.43;30.63;;;;;;;;;;5034755;28;20183;-65
2022/01/11 13:30:52;;;;;;;57.20;32.57;;;;;;;;;;5036622;28;20175;-66
2022/01/11 13:33:22;;;;;;;56.83;32.50;;;;;;;;;;5036450;28;20270;-65
2022/01/11 13:35:48;;;;;;;52.23;31.10;;;;;;;;;;5035965;28;20210;-65
2022/01/11 13:38:14;;;;;;;46.73;28.57;;;;;;;;;;5036354;28;20647;-66
2022/01/11 13:40:41;;;;;;;54.67;31.40;;;;;;;;;;5036349;28;20183;-64
2022/01/11 13:43:08;;;;;;;53.73;30.20;;;;;;;;;;5036057;28;20226;-63
2022/01/11 13:45:38;;;;;;;46.07;28.53;;;;;;;;;;5035732;28;20200;-65
2022/01/11 13:48:11;;;;;;;50.23;28.47;;;;;;;;;;5035671;28;20233;-67
2022/01/11 13:50:51;;;;;;;49.53;29.03;;;;;;;;;;5034172;28;20183;-66
2022/01/11 13:53:24;;;;;;;59.40;33.90;;;;;;;;;;5034463;28;20183;-66
2022/01/11 13:55:51;;;;;;;70.23;39.50;;;;;;;;;;5034368;28;20207;-64
2022/01/11 13:58:18;;;;;;;64.73;35.80;;;;;;;;;;5036559;28;20262;-64
2022/01/11 14:00:44;;;;;;;70.63;39.37;;;;;;;;;;5036493;28;20179;-65
2022/01/11 14:03:20;;;;;;;73.23;39.67;;;;;;;;;;5036050;28;20190;-65
2022/01/11 14:05:47;;;;;;;83.57;49.60;;;;;;;;;;5034214;28;20591;-65
2022/01/11 14:08:13;;;;;;;61.00;34.20;;;;;;;;;;5035951;28;20182;-65